Tuxedo, NC

4:59 PM EDT on September 29, 2016 (GMT -0400)
Carriage Park | | Change Station

Elev 2670 ft 35.34 °N, 82.51 °W | Updated 18 seconds ago

Mostly Cloudy
Mostly Cloudy
72.6 °F
Feels Like 76 °F
N
0.0
Wind Variable Wind from NNE
Gusts 5.0 mph

Today
High -- | Low -- °F
--% Chance of Precip.
Yesterday
High -- | Low -- °F
Precip. -- in
Pressure 29.92 in
Visibility 10.0 miles
Clouds Scattered Clouds 6000 ft
Mostly Cloudy 8000 ft
Heat Index 76 °F
Dew Point 57.0 °F
Humidity 58%
Rainfall 0.00 in
Snow Depth Not available.
7:23 AM 7:15 PM
Waning Crescent, 1% visible
METAR KAVL 292054Z 18013KT 10SM SCT060 BKN080 24/09 A2998 RMK AO2 SLP130 T02440089 55005
Pressure 29.92 in
Visibility 10.0 miles
Clouds Scattered Clouds 6000 ft
Mostly Cloudy 8000 ft
Heat Index 76 °F
Dew Point 57.0 °F
Humidity 58%
Rainfall 0.00 in
Snow Depth Not available.
7:23 AM 7:15 PM
Waning Crescent, 1% visible
METAR KAVL 292054Z 18013KT 10SM SCT060 BKN080 24/09 A2998 RMK AO2 SLP130 T02440089 55005

10-Day Weather Forecast

Almanac

Astronomy

Sep. 29, 2016 Rise Set
Actual Time
Civil Twilight
Nautical Twilight
Astronomical Twilight
Moon
Length of Visible Light
Length of Day
Tomorrow will be .
, % of the Moon is Illuminated

Today's Extremes

State Highs State Lows

Community

WunderPhotos

Upload Photos

1,942,564 photos uploaded!

WunderBlog® & News

Nearby

Air Quality

  Air Quality AQ Index Pollutant
Not available.

Snow Depth

Station Depth Elevation

Earthquake Activity

City Distance Mag. Time & Date
Minimum magnitude displayed is 2.5.

Coastal Water Temperatures

Place Temperature

Stations

Nearby Weather Stations

Station Location Temp. Windchill Dew Point Humidity Wind Precip. Elev Updated Type
                   

Watches & Warnings

There are currently no watches in effect.